sensor_id;sensor_type;location;lat;lon;timestamp;temperature;humidity
22526;DHT22;11429;50.842;4.386;2023-02-05T00:02:15;9.80;99.90
22526;DHT22;11429;50.842;4.386;2023-02-05T00:04:41;9.90;99.90
22526;DHT22;11429;50.842;4.386;2023-02-05T00:07:07;9.90;99.90
22526;DHT22;11429;50.842;4.386;2023-02-05T00:09:32;9.80;99.90
22526;DHT22;11429;50.842;4.386;2023-02-05T00:11:58;9.60;99.90
22526;DHT22;11429;50.842;4.386;2023-02-05T00:14:25;9.80;99.90
22526;DHT22;11429;50.842;4.386;2023-02-05T00:16:51;10.00;99.90
22526;DHT22;11429;50.842;4.386;2023-02-05T00:19:17;10.00;99.90
22526;DHT22;11429;50.842;4.386;2023-02-05T00:21:43;9.80;99.90
22526;DHT22;11429;50.842;4.386;2023-02-05T00:24:09;9.80;99.90
22526;DHT22;11429;50.842;4.386;2023-02-05T00:26:35;9.70;99.90
22526;DHT22;11429;50.842;4.386;2023-02-05T00:29:03;9.80;99.90
22526;DHT22;11429;50.842;4.386;2023-02-05T00:31:29;10.10;99.90
22526;DHT22;11429;50.842;4.386;2023-02-05T00:33:55;10.20;99.90
22526;DHT22;11429;50.842;4.386;2023-02-05T00:36:22;10.00;99.90
22526;DHT22;11429;50.842;4.386;2023-02-05T00:38:49;9.90;99.90
22526;DHT22;11429;50.842;4.386;2023-02-05T00:41:15;9.90;99.90
22526;DHT22;11429;50.842;4.386;2023-02-05T00:43:42;10.00;99.90
22526;DHT22;11429;50.842;4.386;2023-02-05T00:46:08;9.60;99.90
22526;DHT22;11429;50.842;4.386;2023-02-05T00:48:35;9.60;99.90
22526;DHT22;11429;50.842;4.386;2023-02-05T00:51:01;9.70;99.90
22526;DHT22;11429;50.842;4.386;2023-02-05T00:53:27;9.80;99.90
22526;DHT22;11429;50.842;4.386;2023-02-05T00:55:53;9.80;99.90
22526;DHT22;11429;50.842;4.386;2023-02-05T00:58:19;9.80;99.90
22526;DHT22;11429;50.842;4.386;2023-02-05T01:00:45;10.00;99.90
22526;DHT22;11429;50.842;4.386;2023-02-05T01:03:12;10.00;99.90
22526;DHT22;11429;50.842;4.386;2023-02-05T01:05:38;10.00;99.90
22526;DHT22;11429;50.842;4.386;2023-02-05T01:08:06;9.90;99.90
22526;DHT22;11429;50.842;4.386;2023-02-05T01:10:32;9.70;99.90
22526;DHT22;11429;50.842;4.386;2023-02-05T01:12:58;9.50;99.90
22526;DHT22;11429;50.842;4.386;2023-02-05T01:15:25;9.60;99.90
22526;DHT22;11429;50.842;4.386;2023-02-05T01:17:51;9.70;99.90
22526;DHT22;11429;50.842;4.386;2023-02-05T01:20:17;10.00;99.90
22526;DHT22;11429;50.842;4.386;2023-02-05T01:22:43;9.90;99.90
22526;DHT22;11429;50.842;4.386;2023-02-05T01:25:09;9.60;99.90
22526;DHT22;11429;50.842;4.386;2023-02-05T01:27:35;9.50;99.90
22526;DHT22;11429;50.842;4.386;2023-02-05T01:30:02;9.40;99.90
22526;DHT22;11429;50.842;4.386;2023-02-05T01:32:29;9.40;99.90
22526;DHT22;11429;50.842;4.386;2023-02-05T01:34:54;9.50;99.90
22526;DHT22;11429;50.842;4.386;2023-02-05T01:37:20;9.70;99.90
22526;DHT22;11429;50.842;4.386;2023-02-05T01:39:49;9.60;99.90
22526;DHT22;11429;50.842;4.386;2023-02-05T01:44:40;9.50;99.90
22526;DHT22;11429;50.842;4.386;2023-02-05T01:47:06;9.50;99.90
22526;DHT22;11429;50.842;4.386;2023-02-05T01:49:38;9.50;99.90
22526;DHT22;11429;50.842;4.386;2023-02-05T01:52:08;9.40;99.90
22526;DHT22;11429;50.842;4.386;2023-02-05T01:54:38;9.30;99.90
22526;DHT22;11429;50.842;4.386;2023-02-05T01:57:13;9.20;99.90
22526;DHT22;11429;50.842;4.386;2023-02-05T01:59:40;9.10;99.90
22526;DHT22;11429;50.842;4.386;2023-02-05T02:02:07;9.40;99.90
22526;DHT22;11429;50.842;4.386;2023-02-05T02:04:36;9.80;99.90
22526;DHT22;11429;50.842;4.386;2023-02-05T02:07:03;9.90;99.90
22526;DHT22;11429;50.842;4.386;2023-02-05T02:09:29;9.60;99.90
22526;DHT22;11429;50.842;4.386;2023-02-05T02:11:56;9.70;99.90
22526;DHT22;11429;50.842;4.386;2023-02-05T02:14:23;9.50;99.90
22526;DHT22;11429;50.842;4.386;2023-02-05T02:16:51;9.60;99.90
22526;DHT22;11429;50.842;4.386;2023-02-05T02:19:49;9.70;99.90
22526;DHT22;11429;50.842;4.386;2023-02-05T02:22:28;9.70;99.90
22526;DHT22;11429;50.842;4.386;2023-02-05T02:28:22;9.60;99.90
22526;DHT22;11429;50.842;4.386;2023-02-05T02:39:20;9.40;99.90
22526;DHT22;11429;50.842;4.386;2023-02-05T02:42:22;9.40;99.90
22526;DHT22;11429;50.842;4.386;2023-02-05T02:45:00;9.20;99.90
22526;DHT22;11429;50.842;4.386;2023-02-05T02:47:54;9.10;99.90
22526;DHT22;11429;50.842;4.386;2023-02-05T02:50:27;9.00;99.90
22526;DHT22;11429;50.842;4.386;2023-02-05T02:53:21;9.00;99.90
22526;DHT22;11429;50.842;4.386;2023-02-05T02:55:49;9.00;99.90
22526;DHT22;11429;50.842;4.386;2023-02-05T02:58:24;9.10;99.90
22526;DHT22;11429;50.842;4.386;2023-02-05T03:00:53;9.10;99.90
22526;DHT22;11429;50.842;4.386;2023-02-05T03:03:22;9.00;99.90
22526;DHT22;11429;50.842;4.386;2023-02-05T03:05:56;9.10;99.90
22526;DHT22;11429;50.842;4.386;2023-02-05T03:08:28;9.00;99.90
22526;DHT22;11429;50.842;4.386;2023-02-05T03:11:18;9.10;99.90
22526;DHT22;11429;50.842;4.386;2023-02-05T03:13:44;9.00;99.90
22526;DHT22;11429;50.842;4.386;2023-02-05T03:16:11;9.10;99.90
22526;DHT22;11429;50.842;4.386;2023-02-05T03:18:39;9.00;99.90
22526;DHT22;11429;50.842;4.386;2023-02-05T03:21:26;8.90;99.90
22526;DHT22;11429;50.842;4.386;2023-02-05T03:23:53;8.90;99.90
22526;DHT22;11429;50.842;4.386;2023-02-05T03:26:33;8.80;99.90
22526;DHT22;11429;50.842;4.386;2023-02-05T03:29:08;8.80;99.90
22526;DHT22;11429;50.842;4.386;2023-02-05T03:42:21;8.90;99.90
22526;DHT22;11429;50.842;4.386;2023-02-05T03:50:34;8.90;99.90
22526;DHT22;11429;50.842;4.386;2023-02-05T03:53:13;8.80;99.90
22526;DHT22;11429;50.842;4.386;2023-02-05T03:55:47;8.90;99.90
22526;DHT22;11429;50.842;4.386;2023-02-05T03:58:26;8.80;99.90
22526;DHT22;11429;50.842;4.386;2023-02-05T04:00:54;8.80;99.90
22526;DHT22;11429;50.842;4.386;2023-02-05T04:03:20;8.90;99.90
22526;DHT22;11429;50.842;4.386;2023-02-05T04:05:46;9.20;99.90
22526;DHT22;11429;50.842;4.386;2023-02-05T04:08:11;9.40;99.90
22526;DHT22;11429;50.842;4.386;2023-02-05T04:10:37;9.10;99.90
22526;DHT22;11429;50.842;4.386;2023-02-05T04:13:03;9.00;99.90
22526;DHT22;11429;50.842;4.386;2023-02-05T04:15:28;8.90;99.90
22526;DHT22;11429;50.842;4.386;2023-02-05T04:17:54;8.90;99.90
22526;DHT22;11429;50.842;4.386;2023-02-05T04:20:23;8.80;99.90
22526;DHT22;11429;50.842;4.386;2023-02-05T04:22:49;8.70;99.90
22526;DHT22;11429;50.842;4.386;2023-02-05T04:25:14;8.70;99.90
22526;DHT22;11429;50.842;4.386;2023-02-05T04:27:40;8.70;99.90
22526;DHT22;11429;50.842;4.386;2023-02-05T04:30:06;8.70;99.90
22526;DHT22;11429;50.842;4.386;2023-02-05T04:32:32;8.70;99.90
22526;DHT22;11429;50.842;4.386;2023-02-05T04:34:57;8.90;99.90
22526;DHT22;11429;50.842;4.386;2023-02-05T04:37:23;8.90;99.90
22526;DHT22;11429;50.842;4.386;2023-02-05T04:39:50;9.00;99.90
22526;DHT22;11429;50.842;4.386;2023-02-05T04:42:15;8.90;99.90
22526;DHT22;11429;50.842;4.386;2023-02-05T04:44:41;8.90;99.90
22526;DHT22;11429;50.842;4.386;2023-02-05T04:47:07;9.00;99.90
22526;DHT22;11429;50.842;4.386;2023-02-05T04:49:33;8.80;99.90
22526;DHT22;11429;50.842;4.386;2023-02-05T04:51:59;8.80;99.90
22526;DHT22;11429;50.842;4.386;2023-02-05T04:54:25;8.80;99.90
22526;DHT22;11429;50.842;4.386;2023-02-05T04:56:53;8.90;99.90
22526;DHT22;11429;50.842;4.386;2023-02-05T04:59:18;8.80;99.90
22526;DHT22;11429;50.842;4.386;2023-02-05T05:01:44;8.80;99.90
22526;DHT22;11429;50.842;4.386;2023-02-05T05:04:10;8.80;99.90
22526;DHT22;11429;50.842;4.386;2023-02-05T05:06:36;8.80;99.90
22526;DHT22;11429;50.842;4.386;2023-02-05T05:09:01;8.70;99.90
22526;DHT22;11429;50.842;4.386;2023-02-05T05:11:27;8.60;99.90
22526;DHT22;11429;50.842;4.386;2023-02-05T05:13:53;8.60;99.90
22526;DHT22;11429;50.842;4.386;2023-02-05T05:16:18;8.70;99.90
22526;DHT22;11429;50.842;4.386;2023-02-05T05:18:44;8.90;99.90
22526;DHT22;11429;50.842;4.386;2023-02-05T05:21:10;8.90;99.90
22526;DHT22;11429;50.842;4.386;2023-02-05T05:23:37;8.80;99.90
22526;DHT22;11429;50.842;4.386;2023-02-05T05:26:08;8.70;99.90
22526;DHT22;11429;50.842;4.386;2023-02-05T05:28:34;8.40;99.90
22526;DHT22;11429;50.842;4.386;2023-02-05T05:31:09;8.40;99.90
22526;DHT22;11429;50.842;4.386;2023-02-05T05:33:36;8.30;99.90
22526;DHT22;11429;50.842;4.386;2023-02-05T05:36:02;8.20;99.90
22526;DHT22;11429;50.842;4.386;2023-02-05T05:38:28;8.30;99.90
22526;DHT22;11429;50.842;4.386;2023-02-05T05:40:54;8.40;99.90
22526;DHT22;11429;50.842;4.386;2023-02-05T05:43:38;8.30;99.90
22526;DHT22;11429;50.842;4.386;2023-02-05T05:46:24;8.30;99.90
22526;DHT22;11429;50.842;4.386;2023-02-05T05:48:52;8.10;99.90
22526;DHT22;11429;50.842;4.386;2023-02-05T05:51:19;8.20;99.90
22526;DHT22;11429;50.842;4.386;2023-02-05T05:53:45;8.10;99.90
22526;DHT22;11429;50.842;4.386;2023-02-05T05:56:11;8.10;99.90
22526;DHT22;11429;50.842;4.386;2023-02-05T05:58:37;8.20;99.90
22526;DHT22;11429;50.842;4.386;2023-02-05T06:01:04;8.20;99.90
22526;DHT22;11429;50.842;4.386;2023-02-05T06:03:30;8.30;99.90
22526;DHT22;11429;50.842;4.386;2023-02-05T06:06:00;8.20;99.90
22526;DHT22;11429;50.842;4.386;2023-02-05T06:08:26;8.10;99.90
22526;DHT22;11429;50.842;4.386;2023-02-05T06:10:51;8.10;99.90
22526;DHT22;11429;50.842;4.386;2023-02-05T06:13:17;8.10;99.90
22526;DHT22;11429;50.842;4.386;2023-02-05T06:15:42;8.20;99.90
22526;DHT22;11429;50.842;4.386;2023-02-05T06:18:08;8.20;99.90
22526;DHT22;11429;50.842;4.386;2023-02-05T06:20:34;8.20;99.90
22526;DHT22;11429;50.842;4.386;2023-02-05T06:22:59;8.20;99.90
22526;DHT22;11429;50.842;4.386;2023-02-05T06:25:25;8.10;99.90
22526;DHT22;11429;50.842;4.386;2023-02-05T06:27:51;8.10;99.90
22526;DHT22;11429;50.842;4.386;2023-02-05T06:30:17;8.20;99.90
22526;DHT22;11429;50.842;4.386;2023-02-05T06:32:42;8.20;99.90
22526;DHT22;11429;50.842;4.386;2023-02-05T06:35:08;8.20;99.90
22526;DHT22;11429;50.842;4.386;2023-02-05T06:37:34;8.20;99.90
22526;DHT22;11429;50.842;4.386;2023-02-05T06:39:59;8.20;99.90
22526;DHT22;11429;50.842;4.386;2023-02-05T06:42:25;8.30;99.90
22526;DHT22;11429;50.842;4.386;2023-02-05T06:44:51;8.30;99.90
22526;DHT22;11429;50.842;4.386;2023-02-05T06:47:16;8.30;99.90
22526;DHT22;11429;50.842;4.386;2023-02-05T06:49:42;8.30;99.90
22526;DHT22;11429;50.842;4.386;2023-02-05T06:52:08;8.30;99.90
22526;DHT22;11429;50.842;4.386;2023-02-05T06:54:33;8.20;99.90
22526;DHT22;11429;50.842;4.386;2023-02-05T06:56:59;8.00;99.90
22526;DHT22;11429;50.842;4.386;2023-02-05T06:59:25;8.00;99.90
22526;DHT22;11429;50.842;4.386;2023-02-05T07:01:50;8.00;99.90
22526;DHT22;11429;50.842;4.386;2023-02-05T07:04:17;7.80;99.90
22526;DHT22;11429;50.842;4.386;2023-02-05T07:06:42;7.80;99.90
22526;DHT22;11429;50.842;4.386;2023-02-05T07:09:08;7.80;99.90
22526;DHT22;11429;50.842;4.386;2023-02-05T07:11:34;7.80;99.90
22526;DHT22;11429;50.842;4.386;2023-02-05T07:14:00;7.80;99.90
22526;DHT22;11429;50.842;4.386;2023-02-05T07:16:28;8.00;99.90
22526;DHT22;11429;50.842;4.386;2023-02-05T07:18:54;8.00;99.90
22526;DHT22;11429;50.842;4.386;2023-02-05T07:21:20;8.00;99.90
22526;DHT22;11429;50.842;4.386;2023-02-05T07:23:46;8.00;99.90
22526;DHT22;11429;50.842;4.386;2023-02-05T07:26:14;7.90;99.90
22526;DHT22;11429;50.842;4.386;2023-02-05T07:28:41;7.80;99.90
22526;DHT22;11429;50.842;4.386;2023-02-05T07:31:12;7.80;99.90
22526;DHT22;11429;50.842;4.386;2023-02-05T07:33:40;7.80;99.90
22526;DHT22;11429;50.842;4.386;2023-02-05T07:36:08;7.90;99.90
22526;DHT22;11429;50.842;4.386;2023-02-05T07:38:35;7.70;99.90
22526;DHT22;11429;50.842;4.386;2023-02-05T07:41:06;7.90;99.90
22526;DHT22;11429;50.842;4.386;2023-02-05T07:43:33;8.10;99.90
22526;DHT22;11429;50.842;4.386;2023-02-05T07:46:01;8.30;99.90
22526;DHT22;11429;50.842;4.386;2023-02-05T07:48:27;8.40;99.90
22526;DHT22;11429;50.842;4.386;2023-02-05T07:50:52;8.40;99.90
22526;DHT22;11429;50.842;4.386;2023-02-05T07:53:18;8.40;99.90
22526;DHT22;11429;50.842;4.386;2023-02-05T07:55:44;8.50;99.90
22526;DHT22;11429;50.842;4.386;2023-02-05T07:58:11;8.30;99.90
22526;DHT22;11429;50.842;4.386;2023-02-05T08:00:37;8.00;99.90
22526;DHT22;11429;50.842;4.386;2023-02-05T08:03:03;8.00;99.90
22526;DHT22;11429;50.842;4.386;2023-02-05T08:05:29;8.30;99.90
22526;DHT22;11429;50.842;4.386;2023-02-05T08:07:54;8.20;99.90
22526;DHT22;11429;50.842;4.386;2023-02-05T08:10:20;8.00;99.90
22526;DHT22;11429;50.842;4.386;2023-02-05T08:12:46;8.10;99.90
22526;DHT22;11429;50.842;4.386;2023-02-05T08:15:12;8.00;99.90
22526;DHT22;11429;50.842;4.386;2023-02-05T08:17:37;7.90;99.90
22526;DHT22;11429;50.842;4.386;2023-02-05T08:20:04;8.00;99.90
22526;DHT22;11429;50.842;4.386;2023-02-05T08:22:36;7.90;99.90
22526;DHT22;11429;50.842;4.386;2023-02-05T08:25:04;8.10;99.90
22526;DHT22;11429;50.842;4.386;2023-02-05T08:27:34;8.10;99.90
22526;DHT22;11429;50.842;4.386;2023-02-05T08:30:00;8.20;99.90
22526;DHT22;11429;50.842;4.386;2023-02-05T08:32:26;8.10;99.90
22526;DHT22;11429;50.842;4.386;2023-02-05T08:34:52;7.90;99.90
22526;DHT22;11429;50.842;4.386;2023-02-05T08:37:17;8.00;99.90
22526;DHT22;11429;50.842;4.386;2023-02-05T08:39:43;8.00;99.90
22526;DHT22;11429;50.842;4.386;2023-02-05T08:42:09;8.00;99.90
22526;DHT22;11429;50.842;4.386;2023-02-05T08:44:35;8.00;99.90
22526;DHT22;11429;50.842;4.386;2023-02-05T08:47:00;8.00;99.90
22526;DHT22;11429;50.842;4.386;2023-02-05T08:49:26;7.80;99.90
22526;DHT22;11429;50.842;4.386;2023-02-05T08:51:52;7.80;99.90
22526;DHT22;11429;50.842;4.386;2023-02-05T08:54:18;7.70;99.90
22526;DHT22;11429;50.842;4.386;2023-02-05T08:56:44;7.90;99.90
22526;DHT22;11429;50.842;4.386;2023-02-05T08:59:10;8.00;99.90
22526;DHT22;11429;50.842;4.386;2023-02-05T09:01:37;7.90;99.90
22526;DHT22;11429;50.842;4.386;2023-02-05T09:04:06;7.80;99.90
22526;DHT22;11429;50.842;4.386;2023-02-05T09:06:32;7.80;99.90
22526;DHT22;11429;50.842;4.386;2023-02-05T09:08:59;7.80;99.90
22526;DHT22;11429;50.842;4.386;2023-02-05T09:11:25;7.70;99.90
22526;DHT22;11429;50.842;4.386;2023-02-05T09:13:56;7.80;99.90
22526;DHT22;11429;50.842;4.386;2023-02-05T09:16:22;8.00;99.90
22526;DHT22;11429;50.842;4.386;2023-02-05T09:18:47;8.10;99.90
22526;DHT22;11429;50.842;4.386;2023-02-05T09:21:13;8.10;99.90
22526;DHT22;11429;50.842;4.386;2023-02-05T09:23:39;8.10;99.90
22526;DHT22;11429;50.842;4.386;2023-02-05T09:26:05;8.10;99.90
22526;DHT22;11429;50.842;4.386;2023-02-05T09:28:31;8.10;99.90
22526;DHT22;11429;50.842;4.386;2023-02-05T09:30:57;8.00;99.90
22526;DHT22;11429;50.842;4.386;2023-02-05T09:33:23;8.10;99.90
22526;DHT22;11429;50.842;4.386;2023-02-05T09:35:48;8.10;99.90
22526;DHT22;11429;50.842;4.386;2023-02-05T09:38:15;8.00;99.90
22526;DHT22;11429;50.842;4.386;2023-02-05T09:43:25;7.90;99.90
22526;DHT22;11429;50.842;4.386;2023-02-05T09:46:00;8.00;99.90
22526;DHT22;11429;50.842;4.386;2023-02-05T09:51:36;8.10;99.90
22526;DHT22;11429;50.842;4.386;2023-02-05T09:56:38;8.70;99.90
22526;DHT22;11429;50.842;4.386;2023-02-05T09:59:04;8.70;99.90
22526;DHT22;11429;50.842;4.386;2023-02-05T10:01:58;8.60;99.90
22526;DHT22;11429;50.842;4.386;2023-02-05T10:04:24;8.40;99.90
22526;DHT22;11429;50.842;4.386;2023-02-05T10:07:15;8.30;99.90
22526;DHT22;11429;50.842;4.386;2023-02-05T10:25:10;8.50;99.90
22526;DHT22;11429;50.842;4.386;2023-02-05T10:30:11;8.50;99.90
22526;DHT22;11429;50.842;4.386;2023-02-05T10:33:07;9.00;99.90
22526;DHT22;11429;50.842;4.386;2023-02-05T10:38:21;9.60;99.90
22526;DHT22;11429;50.842;4.386;2023-02-05T10:40:50;9.80;99.90
22526;DHT22;11429;50.842;4.386;2023-02-05T10:43:38;9.70;99.90
22526;DHT22;11429;50.842;4.386;2023-02-05T10:46:11;9.50;99.90
22526;DHT22;11429;50.842;4.386;2023-02-05T10:51:15;8.90;99.90
22526;DHT22;11429;50.842;4.386;2023-02-05T10:53:42;8.90;99.90
22526;DHT22;11429;50.842;4.386;2023-02-05T10:56:17;8.90;99.90
22526;DHT22;11429;50.842;4.386;2023-02-05T11:01:20;8.90;99.90
22526;DHT22;11429;50.842;4.386;2023-02-05T11:06:19;9.50;99.90
22526;DHT22;11429;50.842;4.386;2023-02-05T11:08:45;9.70;99.90
22526;DHT22;11429;50.842;4.386;2023-02-05T11:11:25;9.90;99.90
22526;DHT22;11429;50.842;4.386;2023-02-05T11:13:58;9.80;99.90
22526;DHT22;11429;50.842;4.386;2023-02-05T11:16:40;9.80;99.90
22526;DHT22;11429;50.842;4.386;2023-02-05T11:19:21;10.20;99.90
22526;DHT22;11429;50.842;4.386;2023-02-05T11:21:53;10.50;99.90
22526;DHT22;11429;50.842;4.386;2023-02-05T11:24:25;10.40;99.90
22526;DHT22;11429;50.842;4.386;2023-02-05T11:29:37;10.30;99.90
22526;DHT22;11429;50.842;4.386;2023-02-05T11:32:03;10.40;99.90
22526;DHT22;11429;50.842;4.386;2023-02-05T11:34:29;10.10;99.90
22526;DHT22;11429;50.842;4.386;2023-02-05T11:36:56;10.10;99.90
22526;DHT22;11429;50.842;4.386;2023-02-05T11:39:36;10.00;99.90
22526;DHT22;11429;50.842;4.386;2023-02-05T11:42:16;9.80;99.90
22526;DHT22;11429;50.842;4.386;2023-02-05T11:44:57;9.70;99.90
22526;DHT22;11429;50.842;4.386;2023-02-05T11:47:32;9.90;99.90
22526;DHT22;11429;50.842;4.386;2023-02-05T11:49:59;9.70;99.90
22526;DHT22;11429;50.842;4.386;2023-02-05T11:52:29;9.60;99.90
22526;DHT22;11429;50.842;4.386;2023-02-05T11:54:56;9.60;99.90
22526;DHT22;11429;50.842;4.386;2023-02-05T11:57:26;9.80;99.90
22526;DHT22;11429;50.842;4.386;2023-02-05T12:02:30;9.60;99.90
22526;DHT22;11429;50.842;4.386;2023-02-05T12:05:05;9.80;99.90
22526;DHT22;11429;50.842;4.386;2023-02-05T12:07:55;9.70;99.90
22526;DHT22;11429;50.842;4.386;2023-02-05T12:10:43;9.70;99.90
22526;DHT22;11429;50.842;4.386;2023-02-05T12:13:23;9.50;99.90
22526;DHT22;11429;50.842;4.386;2023-02-05T12:16:05;9.90;99.90
22526;DHT22;11429;50.842;4.386;2023-02-05T12:19:03;10.40;99.90
22526;DHT22;11429;50.842;4.386;2023-02-05T12:27:01;10.90;99.90
22526;DHT22;11429;50.842;4.386;2023-02-05T12:35:19;11.50;99.90
22526;DHT22;11429;50.842;4.386;2023-02-05T12:43:24;11.40;99.90
22526;DHT22;11429;50.842;4.386;2023-02-05T12:46:04;10.90;99.90
22526;DHT22;11429;50.842;4.386;2023-02-05T12:54:21;10.80;99.90
22526;DHT22;11429;50.842;4.386;2023-02-05T12:57:28;10.70;99.90
22526;DHT22;11429;50.842;4.386;2023-02-05T12:59:47;10.50;99.90
22526;DHT22;11429;50.842;4.386;2023-02-05T13:05:21;10.40;99.90
22526;DHT22;11429;50.842;4.386;2023-02-05T13:08:03;10.30;99.90
22526;DHT22;11429;50.842;4.386;2023-02-05T13:13:49;10.10;99.90
22526;DHT22;11429;50.842;4.386;2023-02-05T13:16:17;10.10;99.90
22526;DHT22;11429;50.842;4.386;2023-02-05T13:18:50;10.20;99.90
22526;DHT22;11429;50.842;4.386;2023-02-05T13:21:19;10.10;99.90
22526;DHT22;11429;50.842;4.386;2023-02-05T13:27:30;10.00;99.90
22526;DHT22;11429;50.842;4.386;2023-02-05T13:30:25;10.00;99.90
22526;DHT22;11429;50.842;4.386;2023-02-05T13:32:55;10.30;99.90
22526;DHT22;11429;50.842;4.386;2023-02-05T13:35:22;10.20;99.90
22526;DHT22;11429;50.842;4.386;2023-02-05T14:00:27;10.30;99.90
22526;DHT22;11429;50.842;4.386;2023-02-05T14:02:54;10.10;99.90
22526;DHT22;11429;50.842;4.386;2023-02-05T14:05:33;10.10;99.90
22526;DHT22;11429;50.842;4.386;2023-02-05T14:08:00;10.00;99.90
22526;DHT22;11429;50.842;4.386;2023-02-05T14:10:40;9.90;99.90
22526;DHT22;11429;50.842;4.386;2023-02-05T14:13:20;9.90;99.90
22526;DHT22;11429;50.842;4.386;2023-02-05T14:15:47;9.90;99.90
22526;DHT22;11429;50.842;4.386;2023-02-05T14:23:58;9.60;99.90
22526;DHT22;11429;50.842;4.386;2023-02-05T14:26:48;9.60;99.90
22526;DHT22;11429;50.842;4.386;2023-02-05T14:32:02;9.60;99.90
22526;DHT22;11429;50.842;4.386;2023-02-05T14:36:57;9.70;99.90
22526;DHT22;11429;50.842;4.386;2023-02-05T14:39:33;9.70;99.90
22526;DHT22;11429;50.842;4.386;2023-02-05T14:42:05;9.60;99.90
22526;DHT22;11429;50.842;4.386;2023-02-05T14:44:34;9.40;99.90
22526;DHT22;11429;50.842;4.386;2023-02-05T14:52:02;9.50;99.90
22526;DHT22;11429;50.842;4.386;2023-02-05T14:54:50;9.50;99.90
22526;DHT22;11429;50.842;4.386;2023-02-05T14:57:17;9.60;99.90
22526;DHT22;11429;50.842;4.386;2023-02-05T15:10:28;9.60;99.90
22526;DHT22;11429;50.842;4.386;2023-02-05T15:13:02;9.50;99.90
22526;DHT22;11429;50.842;4.386;2023-02-05T15:15:34;9.50;99.90
22526;DHT22;11429;50.842;4.386;2023-02-05T15:18:13;9.50;99.90
22526;DHT22;11429;50.842;4.386;2023-02-05T15:20:45;9.50;99.90
22526;DHT22;11429;50.842;4.386;2023-02-05T15:23:39;9.50;99.90
22526;DHT22;11429;50.842;4.386;2023-02-05T15:26:16;9.50;99.90
22526;DHT22;11429;50.842;4.386;2023-02-05T15:29:20;9.60;99.90
22526;DHT22;11429;50.842;4.386;2023-02-05T15:31:53;9.70;99.90
22526;DHT22;11429;50.842;4.386;2023-02-05T15:34:31;9.70;99.90
22526;DHT22;11429;50.842;4.386;2023-02-05T15:37:00;9.60;99.90
22526;DHT22;11429;50.842;4.386;2023-02-05T15:42:18;9.30;99.90
22526;DHT22;11429;50.842;4.386;2023-02-05T15:44:44;9.40;99.90
22526;DHT22;11429;50.842;4.386;2023-02-05T15:47:16;9.50;99.90
22526;DHT22;11429;50.842;4.386;2023-02-05T15:49:46;9.80;99.90
22526;DHT22;11429;50.842;4.386;2023-02-05T15:52:25;9.80;99.90
22526;DHT22;11429;50.842;4.386;2023-02-05T15:54:54;10.00;99.90
22526;DHT22;11429;50.842;4.386;2023-02-05T15:57:26;9.90;99.90
22526;DHT22;11429;50.842;4.386;2023-02-05T15:59:53;9.80;99.90
22526;DHT22;11429;50.842;4.386;2023-02-05T16:02:25;9.70;99.90
22526;DHT22;11429;50.842;4.386;2023-02-05T16:04:59;9.60;99.90
22526;DHT22;11429;50.842;4.386;2023-02-05T16:07:40;9.50;99.90
22526;DHT22;11429;50.842;4.386;2023-02-05T16:10:19;9.40;99.90
22526;DHT22;11429;50.842;4.386;2023-02-05T16:13:06;9.20;99.90
22526;DHT22;11429;50.842;4.386;2023-02-05T16:15:33;9.30;99.90
22526;DHT22;11429;50.842;4.386;2023-02-05T16:18:04;9.40;99.90
22526;DHT22;11429;50.842;4.386;2023-02-05T16:20:39;9.50;99.90
22526;DHT22;11429;50.842;4.386;2023-02-05T16:23:30;9.50;99.90
22526;DHT22;11429;50.842;4.386;2023-02-05T16:26:05;9.50;99.90
22526;DHT22;11429;50.842;4.386;2023-02-05T16:28:57;9.30;99.90
22526;DHT22;11429;50.842;4.386;2023-02-05T16:31:26;9.30;99.90
22526;DHT22;11429;50.842;4.386;2023-02-05T16:33:57;9.10;99.90
22526;DHT22;11429;50.842;4.386;2023-02-05T16:36:28;9.10;99.90
22526;DHT22;11429;50.842;4.386;2023-02-05T16:39:27;9.30;99.90
22526;DHT22;11429;50.842;4.386;2023-02-05T16:42:03;9.30;99.90
22526;DHT22;11429;50.842;4.386;2023-02-05T16:44:39;9.00;99.90
22526;DHT22;11429;50.842;4.386;2023-02-05T16:47:17;9.10;99.90
22526;DHT22;11429;50.842;4.386;2023-02-05T16:49:47;9.10;99.90
22526;DHT22;11429;50.842;4.386;2023-02-05T16:52:29;9.10;99.90
22526;DHT22;11429;50.842;4.386;2023-02-05T16:54:56;9.30;99.90
22526;DHT22;11429;50.842;4.386;2023-02-05T16:57:27;9.50;99.90
22526;DHT22;11429;50.842;4.386;2023-02-05T17:00:03;9.50;99.90
22526;DHT22;11429;50.842;4.386;2023-02-05T17:02:37;9.20;99.90
22526;DHT22;11429;50.842;4.386;2023-02-05T17:05:22;9.20;99.90
22526;DHT22;11429;50.842;4.386;2023-02-05T17:10:26;9.20;99.90
22526;DHT22;11429;50.842;4.386;2023-02-05T17:17:58;8.90;99.90
22526;DHT22;11429;50.842;4.386;2023-02-05T17:20:29;8.90;99.90
22526;DHT22;11429;50.842;4.386;2023-02-05T17:25:27;8.80;99.90
22526;DHT22;11429;50.842;4.386;2023-02-05T17:27:53;8.90;99.90
22526;DHT22;11429;50.842;4.386;2023-02-05T17:30:20;8.80;99.90
22526;DHT22;11429;50.842;4.386;2023-02-05T17:32:46;8.90;99.90
22526;DHT22;11429;50.842;4.386;2023-02-05T17:35:16;8.80;99.90
22526;DHT22;11429;50.842;4.386;2023-02-05T17:37:42;8.80;99.90
22526;DHT22;11429;50.842;4.386;2023-02-05T17:40:12;8.90;99.90
22526;DHT22;11429;50.842;4.386;2023-02-05T17:42:38;8.80;99.90
22526;DHT22;11429;50.842;4.386;2023-02-05T17:45:30;8.60;99.90
22526;DHT22;11429;50.842;4.386;2023-02-05T17:47:56;8.70;99.90
22526;DHT22;11429;50.842;4.386;2023-02-05T17:50:22;8.50;99.90
22526;DHT22;11429;50.842;4.386;2023-02-05T17:52:48;8.60;99.90
22526;DHT22;11429;50.842;4.386;2023-02-05T17:55:16;8.70;99.90
22526;DHT22;11429;50.842;4.386;2023-02-05T17:57:43;8.50;99.90
22526;DHT22;11429;50.842;4.386;2023-02-05T18:00:15;8.70;99.90
22526;DHT22;11429;50.842;4.386;2023-02-05T18:02:41;8.50;99.90
22526;DHT22;11429;50.842;4.386;2023-02-05T18:05:07;8.50;99.90
22526;DHT22;11429;50.842;4.386;2023-02-05T18:07:40;8.20;99.90
22526;DHT22;11429;50.842;4.386;2023-02-05T18:10:09;8.30;99.90
22526;DHT22;11429;50.842;4.386;2023-02-05T18:12:36;8.40;99.90
22526;DHT22;11429;50.842;4.386;2023-02-05T18:15:01;8.20;99.90
22526;DHT22;11429;50.842;4.386;2023-02-05T18:17:27;8.20;99.90
22526;DHT22;11429;50.842;4.386;2023-02-05T18:19:53;8.30;99.90
22526;DHT22;11429;50.842;4.386;2023-02-05T18:22:18;8.30;99.90
22526;DHT22;11429;50.842;4.386;2023-02-05T18:24:44;8.50;99.90
22526;DHT22;11429;50.842;4.386;2023-02-05T18:27:10;8.50;99.90
22526;DHT22;11429;50.842;4.386;2023-02-05T18:29:37;8.40;99.90
22526;DHT22;11429;50.842;4.386;2023-02-05T18:32:03;8.10;99.90
22526;DHT22;11429;50.842;4.386;2023-02-05T18:34:29;8.30;99.90
22526;DHT22;11429;50.842;4.386;2023-02-05T18:36:55;8.20;99.90
22526;DHT22;11429;50.842;4.386;2023-02-05T18:39:21;8.00;99.90
22526;DHT22;11429;50.842;4.386;2023-02-05T18:41:47;8.00;99.90
22526;DHT22;11429;50.842;4.386;2023-02-05T18:44:13;7.90;99.90
22526;DHT22;11429;50.842;4.386;2023-02-05T18:46:40;7.90;99.90
22526;DHT22;11429;50.842;4.386;2023-02-05T18:49:06;7.80;99.90
22526;DHT22;11429;50.842;4.386;2023-02-05T18:51:31;7.70;99.90